CheckWX is a tool to help pilots better visualize weather data.  It is not intended as a substitute for an official pre-flight weather briefing.

20:07:26 UTC

KDUG TAF
Bisbee Douglas International Airport
Douglas Bisbee, Arizona, USA
KDUG 251720Z 2518/2618 18006KT P6SM SKC FM251900 22010G18KT P6SM SCT250 FM260200 27008KT P6SM FEW250 FM260600 35005KT P6SM FEW250

Jun-25@
18:00 UTC

Jun-25 @ 18:00 UTC

Jun-25@
19:00 UTC

Jun-25 @ 19:00 UTC

KDUG 251720Z 2518/2618 18006KT P6SM SKC

Expired

Wind
  • 180° at 6 KTS
Cloud Levels
  • Clear skies

Jun-25@
19:00 UTC

Jun-25 @ 19:00 UTC

Jun-26@
02:00 UTC

Jun-26 @ 02:00 UTC

FM251900 22010G18KT P6SM SCT250

From

From Standard forecast or significant change

Wind
  • 220° at 10 KTS
  • {Gusting to 18 KTS
Cloud Levels
  • Scattered at 25,000' AGL

Jun-26@
02:00 UTC

Jun-26 @ 02:00 UTC

Jun-26@
06:00 UTC

Jun-26 @ 06:00 UTC

FM260200 27008KT P6SM FEW250

From

From Standard forecast or significant change

Wind
  • 270° at 8 KTS
Cloud Levels
  • Few at 25,000' AGL

Jun-26@
06:00 UTC

Jun-26 @ 06:00 UTC

Jun-26@
18:00 UTC

Jun-26 @ 18:00 UTC

FM260600 35005KT P6SM FEW250

From

From Standard forecast or significant change

Wind
  • 350° at 5 KTS
Cloud Levels
  • Few at 25,000' AGL